sensor_id;sensor_type;location;lat;lon;timestamp;temperature;humidity
23311;DHT22;11828;51.508;18.118;2023-04-24T00:00:58;29.80;31.50
23311;DHT22;11828;51.508;18.118;2023-04-24T00:03:26;29.90;31.40
23311;DHT22;11828;51.508;18.118;2023-04-24T00:05:54;30.00;31.20
23311;DHT22;11828;51.508;18.118;2023-04-24T00:08:21;30.00;31.10
23311;DHT22;11828;51.508;18.118;2023-04-24T00:10:50;30.00;31.20
23311;DHT22;11828;51.508;18.118;2023-04-24T00:13:16;30.00;31.10
23311;DHT22;11828;51.508;18.118;2023-04-24T00:15:42;29.90;31.30
23311;DHT22;11828;51.508;18.118;2023-04-24T00:18:08;29.80;31.50
23311;DHT22;11828;51.508;18.118;2023-04-24T00:20:34;29.60;31.80
23311;DHT22;11828;51.508;18.118;2023-04-24T00:23:03;29.50;32.00
23311;DHT22;11828;51.508;18.118;2023-04-24T00:25:29;29.50;32.10
23311;DHT22;11828;51.508;18.118;2023-04-24T00:27:55;29.50;32.00
23311;DHT22;11828;51.508;18.118;2023-04-24T00:30:21;29.60;32.00
23311;DHT22;11828;51.508;18.118;2023-04-24T00:32:48;29.70;32.00
23311;DHT22;11828;51.508;18.118;2023-04-24T00:35:14;29.70;31.90
23311;DHT22;11828;51.508;18.118;2023-04-24T00:37:40;29.70;31.90
23311;DHT22;11828;51.508;18.118;2023-04-24T00:40:07;29.80;31.80
23311;DHT22;11828;51.508;18.118;2023-04-24T00:42:34;29.80;31.70
23311;DHT22;11828;51.508;18.118;2023-04-24T00:45:01;29.90;31.70
23311;DHT22;11828;51.508;18.118;2023-04-24T00:47:29;29.90;31.60
23311;DHT22;11828;51.508;18.118;2023-04-24T00:49:55;29.80;31.70
23311;DHT22;11828;51.508;18.118;2023-04-24T00:52:22;29.80;31.60
23311;DHT22;11828;51.508;18.118;2023-04-24T00:54:49;29.90;31.70
23311;DHT22;11828;51.508;18.118;2023-04-24T00:57:16;29.90;31.60
23311;DHT22;11828;51.508;18.118;2023-04-24T00:59:43;29.90;31.60
23311;DHT22;11828;51.508;18.118;2023-04-24T01:02:10;30.00;31.50
23311;DHT22;11828;51.508;18.118;2023-04-24T01:04:37;30.00;31.40
23311;DHT22;11828;51.508;18.118;2023-04-24T01:07:04;29.90;31.50
23311;DHT22;11828;51.508;18.118;2023-04-24T01:09:40;30.00;31.50
23311;DHT22;11828;51.508;18.118;2023-04-24T01:12:09;29.90;31.70
23311;DHT22;11828;51.508;18.118;2023-04-24T01:14:36;29.80;32.20
23311;DHT22;11828;51.508;18.118;2023-04-24T01:17:03;29.80;32.30
23311;DHT22;11828;51.508;18.118;2023-04-24T01:19:29;29.80;32.50
23311;DHT22;11828;51.508;18.118;2023-04-24T01:21:58;29.80;32.30
23311;DHT22;11828;51.508;18.118;2023-04-24T01:24:25;29.90;32.70
23311;DHT22;11828;51.508;18.118;2023-04-24T01:26:51;29.90;32.50
23311;DHT22;11828;51.508;18.118;2023-04-24T01:29:17;30.00;32.30
23311;DHT22;11828;51.508;18.118;2023-04-24T01:31:44;30.00;32.30
23311;DHT22;11828;51.508;18.118;2023-04-24T01:34:10;29.90;32.20
23311;DHT22;11828;51.508;18.118;2023-04-24T01:36:37;29.90;32.20
23311;DHT22;11828;51.508;18.118;2023-04-24T01:39:03;30.00;32.10
23311;DHT22;11828;51.508;18.118;2023-04-24T01:41:30;30.00;32.00
23311;DHT22;11828;51.508;18.118;2023-04-24T01:43:57;30.00;32.00
23311;DHT22;11828;51.508;18.118;2023-04-24T01:46:24;30.00;31.90
23311;DHT22;11828;51.508;18.118;2023-04-24T01:48:51;30.00;32.00
23311;DHT22;11828;51.508;18.118;2023-04-24T01:51:18;30.00;32.00
23311;DHT22;11828;51.508;18.118;2023-04-24T01:53:44;30.00;32.10
23311;DHT22;11828;51.508;18.118;2023-04-24T01:56:11;30.00;32.00
23311;DHT22;11828;51.508;18.118;2023-04-24T01:58:37;30.00;32.10
23311;DHT22;11828;51.508;18.118;2023-04-24T02:01:03;30.00;32.30
23311;DHT22;11828;51.508;18.118;2023-04-24T02:03:30;29.90;32.40
23311;DHT22;11828;51.508;18.118;2023-04-24T02:05:57;29.90;32.50
23311;DHT22;11828;51.508;18.118;2023-04-24T02:08:23;29.90;32.50
23311;DHT22;11828;51.508;18.118;2023-04-24T02:10:50;30.00;32.50
23311;DHT22;11828;51.508;18.118;2023-04-24T02:13:16;30.20;32.50
23311;DHT22;11828;51.508;18.118;2023-04-24T02:15:42;30.40;32.40
23311;DHT22;11828;51.508;18.118;2023-04-24T02:18:08;30.50;32.00
23311;DHT22;11828;51.508;18.118;2023-04-24T02:20:35;30.60;31.70
23311;DHT22;11828;51.508;18.118;2023-04-24T02:23:01;30.80;31.50
23311;DHT22;11828;51.508;18.118;2023-04-24T02:25:27;30.90;31.40
23311;DHT22;11828;51.508;18.118;2023-04-24T02:27:53;30.80;31.30
23311;DHT22;11828;51.508;18.118;2023-04-24T02:30:19;30.80;31.20
23311;DHT22;11828;51.508;18.118;2023-04-24T02:32:46;30.80;31.10
23311;DHT22;11828;51.508;18.118;2023-04-24T02:35:12;30.90;31.10
23311;DHT22;11828;51.508;18.118;2023-04-24T02:37:38;30.90;31.30
23311;DHT22;11828;51.508;18.118;2023-04-24T02:40:05;30.90;32.20
23311;DHT22;11828;51.508;18.118;2023-04-24T02:42:31;30.90;31.70
23311;DHT22;11828;51.508;18.118;2023-04-24T02:44:58;30.90;31.70
23311;DHT22;11828;51.508;18.118;2023-04-24T02:47:24;30.90;31.60
23311;DHT22;11828;51.508;18.118;2023-04-24T02:49:50;30.90;31.70
23311;DHT22;11828;51.508;18.118;2023-04-24T02:52:16;30.80;31.70
23311;DHT22;11828;51.508;18.118;2023-04-24T02:54:43;30.70;32.40
23311;DHT22;11828;51.508;18.118;2023-04-24T02:57:09;30.50;31.60
23311;DHT22;11828;51.508;18.118;2023-04-24T02:59:35;30.40;31.70
23311;DHT22;11828;51.508;18.118;2023-04-24T03:02:01;30.10;31.90
23311;DHT22;11828;51.508;18.118;2023-04-24T03:04:28;29.80;32.20
23311;DHT22;11828;51.508;18.118;2023-04-24T03:06:53;29.50;32.70
23311;DHT22;11828;51.508;18.118;2023-04-24T03:09:21;29.20;33.60
23311;DHT22;11828;51.508;18.118;2023-04-24T03:11:47;28.70;33.60
23311;DHT22;11828;51.508;18.118;2023-04-24T03:14:16;28.40;33.30
23311;DHT22;11828;51.508;18.118;2023-04-24T03:16:42;28.10;34.20
23311;DHT22;11828;51.508;18.118;2023-04-24T03:19:08;27.80;35.10
23311;DHT22;11828;51.508;18.118;2023-04-24T03:21:34;27.50;35.60
23311;DHT22;11828;51.508;18.118;2023-04-24T03:24:01;27.40;36.60
23311;DHT22;11828;51.508;18.118;2023-04-24T03:26:28;27.20;37.00
23311;DHT22;11828;51.508;18.118;2023-04-24T03:28:54;27.10;37.40
23311;DHT22;11828;51.508;18.118;2023-04-24T03:31:20;27.10;37.10
23311;DHT22;11828;51.508;18.118;2023-04-24T03:33:47;27.10;37.10
23311;DHT22;11828;51.508;18.118;2023-04-24T03:36:13;27.00;36.90
23311;DHT22;11828;51.508;18.118;2023-04-24T03:38:39;27.00;36.40
23311;DHT22;11828;51.508;18.118;2023-04-24T03:41:05;27.00;35.90
23311;DHT22;11828;51.508;18.118;2023-04-24T03:43:31;27.20;35.40
23311;DHT22;11828;51.508;18.118;2023-04-24T03:46:00;27.30;34.70
23311;DHT22;11828;51.508;18.118;2023-04-24T03:48:26;27.40;34.60
23311;DHT22;11828;51.508;18.118;2023-04-24T03:50:52;27.50;34.20
23311;DHT22;11828;51.508;18.118;2023-04-24T03:53:18;27.70;34.20
23311;DHT22;11828;51.508;18.118;2023-04-24T03:55:45;27.80;34.60
23311;DHT22;11828;51.508;18.118;2023-04-24T03:58:12;27.80;35.00
23311;DHT22;11828;51.508;18.118;2023-04-24T04:00:40;27.80;35.70
23311;DHT22;11828;51.508;18.118;2023-04-24T04:03:06;27.70;36.30
23311;DHT22;11828;51.508;18.118;2023-04-24T04:05:32;27.50;36.40
23311;DHT22;11828;51.508;18.118;2023-04-24T04:07:59;27.50;36.90
23311;DHT22;11828;51.508;18.118;2023-04-24T04:10:25;27.50;36.20
23311;DHT22;11828;51.508;18.118;2023-04-24T04:12:52;27.30;35.80
23311;DHT22;11828;51.508;18.118;2023-04-24T04:15:18;27.30;36.10
23311;DHT22;11828;51.508;18.118;2023-04-24T04:17:44;27.40;35.80
23311;DHT22;11828;51.508;18.118;2023-04-24T04:20:11;27.40;35.30
23311;DHT22;11828;51.508;18.118;2023-04-24T04:22:37;27.60;35.00
23311;DHT22;11828;51.508;18.118;2023-04-24T04:25:04;27.70;34.90
23311;DHT22;11828;51.508;18.118;2023-04-24T04:27:31;27.90;34.80
23311;DHT22;11828;51.508;18.118;2023-04-24T04:29:58;28.00;34.50
23311;DHT22;11828;51.508;18.118;2023-04-24T04:32:29;28.10;34.40
23311;DHT22;11828;51.508;18.118;2023-04-24T04:34:55;28.10;34.60
23311;DHT22;11828;51.508;18.118;2023-04-24T04:37:21;28.00;34.70
23311;DHT22;11828;51.508;18.118;2023-04-24T04:39:47;28.00;34.40
23311;DHT22;11828;51.508;18.118;2023-04-24T04:42:13;27.90;34.80
23311;DHT22;11828;51.508;18.118;2023-04-24T04:44:41;27.90;34.80
23311;DHT22;11828;51.508;18.118;2023-04-24T04:47:07;28.00;34.90
23311;DHT22;11828;51.508;18.118;2023-04-24T04:49:34;28.00;34.80
23311;DHT22;11828;51.508;18.118;2023-04-24T04:52:00;27.90;35.00
23311;DHT22;11828;51.508;18.118;2023-04-24T04:54:26;27.80;35.30
23311;DHT22;11828;51.508;18.118;2023-04-24T04:56:54;27.80;35.60
23311;DHT22;11828;51.508;18.118;2023-04-24T04:59:20;27.80;35.20
23311;DHT22;11828;51.508;18.118;2023-04-24T05:01:46;27.80;35.30
23311;DHT22;11828;51.508;18.118;2023-04-24T05:04:12;27.90;35.40
23311;DHT22;11828;51.508;18.118;2023-04-24T05:06:39;27.90;35.60
23311;DHT22;11828;51.508;18.118;2023-04-24T05:09:05;27.80;35.80
23311;DHT22;11828;51.508;18.118;2023-04-24T05:11:31;27.80;35.90
23311;DHT22;11828;51.508;18.118;2023-04-24T05:13:57;27.80;35.50
23311;DHT22;11828;51.508;18.118;2023-04-24T05:16:23;27.60;35.10
23311;DHT22;11828;51.508;18.118;2023-04-24T05:18:49;27.60;35.10
23311;DHT22;11828;51.508;18.118;2023-04-24T05:21:16;27.60;35.40
23311;DHT22;11828;51.508;18.118;2023-04-24T05:23:42;27.60;35.30
23311;DHT22;11828;51.508;18.118;2023-04-24T05:26:08;27.60;35.20
23311;DHT22;11828;51.508;18.118;2023-04-24T05:28:34;27.60;35.50
23311;DHT22;11828;51.508;18.118;2023-04-24T05:31:02;27.50;35.50
23311;DHT22;11828;51.508;18.118;2023-04-24T05:33:29;27.70;35.40
23311;DHT22;11828;51.508;18.118;2023-04-24T05:35:55;27.80;35.10
23311;DHT22;11828;51.508;18.118;2023-04-24T05:38:21;27.90;34.80
23311;DHT22;11828;51.508;18.118;2023-04-24T05:40:48;27.90;34.40
23311;DHT22;11828;51.508;18.118;2023-04-24T05:43:14;28.00;34.20
23311;DHT22;11828;51.508;18.118;2023-04-24T05:45:40;28.00;34.20
23311;DHT22;11828;51.508;18.118;2023-04-24T05:48:06;28.00;33.80
23311;DHT22;11828;51.508;18.118;2023-04-24T05:50:33;28.00;33.30
23311;DHT22;11828;51.508;18.118;2023-04-24T05:52:59;28.00;33.30
23311;DHT22;11828;51.508;18.118;2023-04-24T05:55:25;28.00;33.20
23311;DHT22;11828;51.508;18.118;2023-04-24T05:57:51;28.10;32.80
23311;DHT22;11828;51.508;18.118;2023-04-24T06:00:18;28.20;32.40
23311;DHT22;11828;51.508;18.118;2023-04-24T06:02:46;28.40;32.10
23311;DHT22;11828;51.508;18.118;2023-04-24T06:05:13;28.40;31.70
23311;DHT22;11828;51.508;18.118;2023-04-24T06:07:40;28.60;31.70
23311;DHT22;11828;51.508;18.118;2023-04-24T06:10:06;28.70;31.50
23311;DHT22;11828;51.508;18.118;2023-04-24T06:12:33;28.70;31.90
23311;DHT22;11828;51.508;18.118;2023-04-24T06:14:59;28.60;32.10
23311;DHT22;11828;51.508;18.118;2023-04-24T06:17:25;28.30;32.00
23311;DHT22;11828;51.508;18.118;2023-04-24T06:19:52;28.20;32.80
23311;DHT22;11828;51.508;18.118;2023-04-24T06:22:18;28.10;33.20
23311;DHT22;11828;51.508;18.118;2023-04-24T06:24:44;28.10;33.30
23311;DHT22;11828;51.508;18.118;2023-04-24T06:27:10;28.30;33.40
23311;DHT22;11828;51.508;18.118;2023-04-24T06:29:36;28.50;33.00
23311;DHT22;11828;51.508;18.118;2023-04-24T06:32:02;28.60;33.00
23311;DHT22;11828;51.508;18.118;2023-04-24T06:34:29;28.70;33.00
23311;DHT22;11828;51.508;18.118;2023-04-24T06:36:56;28.70;32.80
23311;DHT22;11828;51.508;18.118;2023-04-24T06:39:22;28.80;32.90
23311;DHT22;11828;51.508;18.118;2023-04-24T06:41:48;29.00;32.80
23311;DHT22;11828;51.508;18.118;2023-04-24T06:44:15;28.90;33.00
23311;DHT22;11828;51.508;18.118;2023-04-24T06:46:42;29.00;33.10
23311;DHT22;11828;51.508;18.118;2023-04-24T06:49:08;29.00;33.00
23311;DHT22;11828;51.508;18.118;2023-04-24T06:51:34;29.10;33.50
23311;DHT22;11828;51.508;18.118;2023-04-24T06:54:01;29.10;33.40
23311;DHT22;11828;51.508;18.118;2023-04-24T06:56:27;29.20;33.50
23311;DHT22;11828;51.508;18.118;2023-04-24T06:58:55;29.20;33.30
23311;DHT22;11828;51.508;18.118;2023-04-24T07:01:21;29.30;33.20
23311;DHT22;11828;51.508;18.118;2023-04-24T07:03:47;29.60;33.20
23311;DHT22;11828;51.508;18.118;2023-04-24T07:06:13;29.80;33.10
23311;DHT22;11828;51.508;18.118;2023-04-24T07:08:40;30.00;33.00
23311;DHT22;11828;51.508;18.118;2023-04-24T07:11:07;30.20;32.70
23311;DHT22;11828;51.508;18.118;2023-04-24T07:13:34;30.40;32.60
23311;DHT22;11828;51.508;18.118;2023-04-24T07:16:01;30.40;32.00
23311;DHT22;11828;51.508;18.118;2023-04-24T07:18:27;30.40;30.80
23311;DHT22;11828;51.508;18.118;2023-04-24T07:20:53;30.50;30.70
23311;DHT22;11828;51.508;18.118;2023-04-24T07:23:19;30.40;30.10
23311;DHT22;11828;51.508;18.118;2023-04-24T07:25:45;30.10;30.00
23311;DHT22;11828;51.508;18.118;2023-04-24T07:28:12;30.10;30.30
23311;DHT22;11828;51.508;18.118;2023-04-24T07:30:38;30.20;30.40
23311;DHT22;11828;51.508;18.118;2023-04-24T07:33:05;30.10;30.00
23311;DHT22;11828;51.508;18.118;2023-04-24T07:35:33;30.20;30.10
23311;DHT22;11828;51.508;18.118;2023-04-24T07:37:59;30.30;30.00
23311;DHT22;11828;51.508;18.118;2023-04-24T07:40:25;30.20;30.00
23311;DHT22;11828;51.508;18.118;2023-04-24T07:42:52;30.30;29.80
23311;DHT22;11828;51.508;18.118;2023-04-24T07:45:18;30.10;29.90
23311;DHT22;11828;51.508;18.118;2023-04-24T07:47:44;30.10;29.60
23311;DHT22;11828;51.508;18.118;2023-04-24T07:50:12;30.00;29.70
23311;DHT22;11828;51.508;18.118;2023-04-24T07:52:39;30.10;30.00
23311;DHT22;11828;51.508;18.118;2023-04-24T07:55:05;30.10;29.90
23311;DHT22;11828;51.508;18.118;2023-04-24T07:57:36;30.10;29.90
23311;DHT22;11828;51.508;18.118;2023-04-24T08:00:03;30.30;29.60
23311;DHT22;11828;51.508;18.118;2023-04-24T08:02:31;30.30;29.70
23311;DHT22;11828;51.508;18.118;2023-04-24T08:04:57;30.60;29.70
23311;DHT22;11828;51.508;18.118;2023-04-24T08:07:24;30.80;29.50
23311;DHT22;11828;51.508;18.118;2023-04-24T08:09:50;31.20;29.70
23311;DHT22;11828;51.508;18.118;2023-04-24T08:12:16;31.90;29.30
23311;DHT22;11828;51.508;18.118;2023-04-24T08:14:42;32.90;29.30
23311;DHT22;11828;51.508;18.118;2023-04-24T08:17:08;33.90;28.20
23311;DHT22;11828;51.508;18.118;2023-04-24T08:19:34;34.70;27.00
23311;DHT22;11828;51.508;18.118;2023-04-24T08:22:00;35.20;26.10
23311;DHT22;11828;51.508;18.118;2023-04-24T08:24:26;35.90;26.80
23311;DHT22;11828;51.508;18.118;2023-04-24T08:26:53;36.60;25.60
23311;DHT22;11828;51.508;18.118;2023-04-24T08:29:19;37.00;24.60
23311;DHT22;11828;51.508;18.118;2023-04-24T08:31:46;37.30;24.30
23311;DHT22;11828;51.508;18.118;2023-04-24T08:34:12;37.90;24.20
23311;DHT22;11828;51.508;18.118;2023-04-24T08:36:39;38.70;22.60
23311;DHT22;11828;51.508;18.118;2023-04-24T08:39:06;39.40;22.90
23311;DHT22;11828;51.508;18.118;2023-04-24T08:41:34;40.00;22.20
23311;DHT22;11828;51.508;18.118;2023-04-24T08:44:02;40.80;21.50
23311;DHT22;11828;51.508;18.118;2023-04-24T08:46:30;41.40;21.30
23311;DHT22;11828;51.508;18.118;2023-04-24T08:48:56;41.90;20.90
23311;DHT22;11828;51.508;18.118;2023-04-24T08:51:26;42.40;20.50
23311;DHT22;11828;51.508;18.118;2023-04-24T08:53:54;42.80;19.90
23311;DHT22;11828;51.508;18.118;2023-04-24T08:56:22;43.40;19.70
23311;DHT22;11828;51.508;18.118;2023-04-24T08:58:51;43.90;19.50
23311;DHT22;11828;51.508;18.118;2023-04-24T09:01:21;44.20;19.20
23311;DHT22;11828;51.508;18.118;2023-04-24T09:03:49;44.30;19.20
23311;DHT22;11828;51.508;18.118;2023-04-24T09:06:17;44.50;19.00
23311;DHT22;11828;51.508;18.118;2023-04-24T09:08:45;44.80;18.70
23311;DHT22;11828;51.508;18.118;2023-04-24T09:11:12;45.00;18.30
23311;DHT22;11828;51.508;18.118;2023-04-24T09:13:38;45.10;18.50
23311;DHT22;11828;51.508;18.118;2023-04-24T09:16:04;45.20;18.40
23311;DHT22;11828;51.508;18.118;2023-04-24T09:18:30;45.20;18.30
23311;DHT22;11828;51.508;18.118;2023-04-24T09:21:01;45.30;18.30
23311;DHT22;11828;51.508;18.118;2023-04-24T09:23:34;45.30;17.50
23311;DHT22;11828;51.508;18.118;2023-04-24T09:26:01;45.20;17.50
23311;DHT22;11828;51.508;18.118;2023-04-24T09:28:38;44.70;17.40
23311;DHT22;11828;51.508;18.118;2023-04-24T09:31:16;44.00;17.60
23311;DHT22;11828;51.508;18.118;2023-04-24T09:34:04;43.40;18.00
23311;DHT22;11828;51.508;18.118;2023-04-24T09:36:37;42.60;18.10
23311;DHT22;11828;51.508;18.118;2023-04-24T09:39:05;42.30;18.60
23311;DHT22;11828;51.508;18.118;2023-04-24T09:44:22;42.10;19.10
23311;DHT22;11828;51.508;18.118;2023-04-24T09:47:00;42.00;18.90
23311;DHT22;11828;51.508;18.118;2023-04-24T09:49:27;41.80;18.90
23311;DHT22;11828;51.508;18.118;2023-04-24T09:52:09;41.60;18.90
23311;DHT22;11828;51.508;18.118;2023-04-24T09:54:35;41.30;19.20
23311;DHT22;11828;51.508;18.118;2023-04-24T09:57:07;41.20;19.40
23311;DHT22;11828;51.508;18.118;2023-04-24T09:59:34;41.10;19.60
23311;DHT22;11828;51.508;18.118;2023-04-24T10:02:01;40.80;19.70
23311;DHT22;11828;51.508;18.118;2023-04-24T10:04:28;40.40;19.80
23311;DHT22;11828;51.508;18.118;2023-04-24T10:06:56;40.10;20.30
23311;DHT22;11828;51.508;18.118;2023-04-24T10:09:25;39.90;20.30
23311;DHT22;11828;51.508;18.118;2023-04-24T10:11:53;39.80;20.60
23311;DHT22;11828;51.508;18.118;2023-04-24T10:14:22;39.50;20.40
23311;DHT22;11828;51.508;18.118;2023-04-24T10:16:52;39.40;20.80
23311;DHT22;11828;51.508;18.118;2023-04-24T10:19:19;39.20;20.80
23311;DHT22;11828;51.508;18.118;2023-04-24T10:21:46;38.90;20.90
23311;DHT22;11828;51.508;18.118;2023-04-24T10:24:14;38.60;21.20
23311;DHT22;11828;51.508;18.118;2023-04-24T10:26:42;38.30;21.40
23311;DHT22;11828;51.508;18.118;2023-04-24T10:29:10;38.10;21.50
23311;DHT22;11828;51.508;18.118;2023-04-24T10:31:41;38.00;21.70
23311;DHT22;11828;51.508;18.118;2023-04-24T10:34:09;37.90;21.80
23311;DHT22;11828;51.508;18.118;2023-04-24T10:36:40;37.70;21.90
23311;DHT22;11828;51.508;18.118;2023-04-24T10:39:11;37.70;22.30
23311;DHT22;11828;51.508;18.118;2023-04-24T10:41:39;37.40;22.10
23311;DHT22;11828;51.508;18.118;2023-04-24T10:46:36;37.30;22.40
23311;DHT22;11828;51.508;18.118;2023-04-24T10:49:04;37.30;22.30
23311;DHT22;11828;51.508;18.118;2023-04-24T10:51:50;37.30;22.00
23311;DHT22;11828;51.508;18.118;2023-04-24T10:54:33;37.10;21.80
23311;DHT22;11828;51.508;18.118;2023-04-24T10:59:49;36.90;21.80
23311;DHT22;11828;51.508;18.118;2023-04-24T11:02:18;36.70;21.80
23311;DHT22;11828;51.508;18.118;2023-04-24T11:04:44;36.60;22.00
23311;DHT22;11828;51.508;18.118;2023-04-24T11:07:12;36.40;22.00
23311;DHT22;11828;51.508;18.118;2023-04-24T11:09:38;36.10;22.00
23311;DHT22;11828;51.508;18.118;2023-04-24T11:12:10;36.00;22.10
23311;DHT22;11828;51.508;18.118;2023-04-24T11:17:34;35.70;22.40
23311;DHT22;11828;51.508;18.118;2023-04-24T11:20:17;35.70;22.40
23311;DHT22;11828;51.508;18.118;2023-04-24T11:22:43;35.70;22.50
23311;DHT22;11828;51.508;18.118;2023-04-24T11:25:09;35.70;22.40
23311;DHT22;11828;51.508;18.118;2023-04-24T11:27:40;35.70;22.60
23311;DHT22;11828;51.508;18.118;2023-04-24T11:30:08;35.70;22.60
23311;DHT22;11828;51.508;18.118;2023-04-24T11:32:43;35.80;22.70
23311;DHT22;11828;51.508;18.118;2023-04-24T11:35:15;35.90;22.60
23311;DHT22;11828;51.508;18.118;2023-04-24T11:37:48;36.00;22.40
23311;DHT22;11828;51.508;18.118;2023-04-24T11:40:18;36.10;22.50
23311;DHT22;11828;51.508;18.118;2023-04-24T11:42:47;36.30;22.50
23311;DHT22;11828;51.508;18.118;2023-04-24T11:45:15;36.50;22.20
23311;DHT22;11828;51.508;18.118;2023-04-24T11:47:43;36.60;22.20
23311;DHT22;11828;51.508;18.118;2023-04-24T11:50:15;36.60;22.10
23311;DHT22;11828;51.508;18.118;2023-04-24T11:52:45;36.50;22.10
23311;DHT22;11828;51.508;18.118;2023-04-24T11:57:45;36.20;22.20
23311;DHT22;11828;51.508;18.118;2023-04-24T12:00:16;36.00;22.30
23311;DHT22;11828;51.508;18.118;2023-04-24T12:02:44;35.80;22.60
23311;DHT22;11828;51.508;18.118;2023-04-24T12:07:50;35.50;23.10
23311;DHT22;11828;51.508;18.118;2023-04-24T12:10:23;35.50;23.10
23311;DHT22;11828;51.508;18.118;2023-04-24T12:12:51;35.50;23.30
23311;DHT22;11828;51.508;18.118;2023-04-24T12:15:19;35.50;23.50
23311;DHT22;11828;51.508;18.118;2023-04-24T12:17:46;35.40;23.30
23311;DHT22;11828;51.508;18.118;2023-04-24T12:20:13;35.60;23.20
23311;DHT22;11828;51.508;18.118;2023-04-24T12:25:15;36.20;23.40
23311;DHT22;11828;51.508;18.118;2023-04-24T12:27:43;35.90;23.20
23311;DHT22;11828;51.508;18.118;2023-04-24T12:30:13;36.00;23.00
23311;DHT22;11828;51.508;18.118;2023-04-24T12:32:47;36.00;22.90
23311;DHT22;11828;51.508;18.118;2023-04-24T12:35:23;36.00;23.00
23311;DHT22;11828;51.508;18.118;2023-04-24T12:37:50;36.00;23.00
23311;DHT22;11828;51.508;18.118;2023-04-24T12:40:18;35.90;23.10
23311;DHT22;11828;51.508;18.118;2023-04-24T12:42:48;35.70;22.80
23311;DHT22;11828;51.508;18.118;2023-04-24T12:45:16;35.40;22.80
23311;DHT22;11828;51.508;18.118;2023-04-24T12:47:44;35.20;23.20
23311;DHT22;11828;51.508;18.118;2023-04-24T12:50:13;35.10;23.20
23311;DHT22;11828;51.508;18.118;2023-04-24T12:52:41;35.10;23.40
23311;DHT22;11828;51.508;18.118;2023-04-24T12:55:08;35.10;23.70
23311;DHT22;11828;51.508;18.118;2023-04-24T12:57:37;35.10;23.90
23311;DHT22;11828;51.508;18.118;2023-04-24T13:00:06;35.00;23.90
23311;DHT22;11828;51.508;18.118;2023-04-24T13:02:33;35.00;24.30
23311;DHT22;11828;51.508;18.118;2023-04-24T13:05:01;34.70;24.30
23311;DHT22;11828;51.508;18.118;2023-04-24T13:07:28;34.40;24.40
23311;DHT22;11828;51.508;18.118;2023-04-24T13:09:55;34.30;24.60
23311;DHT22;11828;51.508;18.118;2023-04-24T13:12:22;34.20;24.80
23311;DHT22;11828;51.508;18.118;2023-04-24T13:14:52;34.10;24.80
23311;DHT22;11828;51.508;18.118;2023-04-24T13:17:19;34.10;25.00
23311;DHT22;11828;51.508;18.118;2023-04-24T13:19:45;34.00;25.10
23311;DHT22;11828;51.508;18.118;2023-04-24T13:22:12;33.90;25.70
23311;DHT22;11828;51.508;18.118;2023-04-24T13:24:39;33.80;25.20
23311;DHT22;11828;51.508;18.118;2023-04-24T13:27:07;33.80;25.30
23311;DHT22;11828;51.508;18.118;2023-04-24T13:29:34;33.80;25.40
23311;DHT22;11828;51.508;18.118;2023-04-24T13:32:00;33.70;25.20
23311;DHT22;11828;51.508;18.118;2023-04-24T13:34:26;33.50;25.20
23311;DHT22;11828;51.508;18.118;2023-04-24T13:36:54;33.20;25.00
23311;DHT22;11828;51.508;18.118;2023-04-24T13:39:22;32.90;25.80
23311;DHT22;11828;51.508;18.118;2023-04-24T13:41:48;32.70;26.10
23311;DHT22;11828;51.508;18.118;2023-04-24T13:44:16;32.50;26.90
23311;DHT22;11828;51.508;18.118;2023-04-24T13:46:45;32.20;27.50
23311;DHT22;11828;51.508;18.118;2023-04-24T13:49:13;32.00;27.90
23311;DHT22;11828;51.508;18.118;2023-04-24T13:51:40;31.80;28.20
23311;DHT22;11828;51.508;18.118;2023-04-24T13:54:07;31.80;28.10
23311;DHT22;11828;51.508;18.118;2023-04-24T13:56:33;31.70;28.80
23311;DHT22;11828;51.508;18.118;2023-04-24T13:58:59;31.80;28.90
23311;DHT22;11828;51.508;18.118;2023-04-24T14:01:26;31.80;28.90
23311;DHT22;11828;51.508;18.118;2023-04-24T14:03:53;31.90;29.40
23311;DHT22;11828;51.508;18.118;2023-04-24T14:06:20;32.00;29.20
23311;DHT22;11828;51.508;18.118;2023-04-24T14:08:47;32.10;29.20
23311;DHT22;11828;51.508;18.118;2023-04-24T14:11:14;32.20;29.30
23311;DHT22;11828;51.508;18.118;2023-04-24T14:13:41;32.20;29.50
23311;DHT22;11828;51.508;18.118;2023-04-24T14:16:08;32.30;29.20
23311;DHT22;11828;51.508;18.118;2023-04-24T14:18:35;32.20;29.20
23311;DHT22;11828;51.508;18.118;2023-04-24T14:21:05;31.90;29.30
23311;DHT22;11828;51.508;18.118;2023-04-24T14:23:31;31.70;29.90
23311;DHT22;11828;51.508;18.118;2023-04-24T14:25:58;31.50;29.90
23311;DHT22;11828;51.508;18.118;2023-04-24T14:28:25;31.50;30.60
23311;DHT22;11828;51.508;18.118;2023-04-24T14:30:52;31.20;30.20
23311;DHT22;11828;51.508;18.118;2023-04-24T14:33:19;31.00;30.50
23311;DHT22;11828;51.508;18.118;2023-04-24T14:35:46;30.80;30.80
23311;DHT22;11828;51.508;18.118;2023-04-24T14:38:12;30.60;31.10
23311;DHT22;11828;51.508;18.118;2023-04-24T14:40:38;30.60;31.10
23311;DHT22;11828;51.508;18.118;2023-04-24T14:43:04;30.60;30.90
23311;DHT22;11828;51.508;18.118;2023-04-24T14:45:30;30.70;31.20
23311;DHT22;11828;51.508;18.118;2023-04-24T14:47:57;30.60;30.90
23311;DHT22;11828;51.508;18.118;2023-04-24T14:50:24;30.80;30.80
23311;DHT22;11828;51.508;18.118;2023-04-24T14:52:54;31.00;30.80
23311;DHT22;11828;51.508;18.118;2023-04-24T14:55:24;31.10;31.00
23311;DHT22;11828;51.508;18.118;2023-04-24T14:57:51;31.20;31.00
23311;DHT22;11828;51.508;18.118;2023-04-24T15:00:18;31.30;30.20
23311;DHT22;11828;51.508;18.118;2023-04-24T15:02:45;31.40;30.20
23311;DHT22;11828;51.508;18.118;2023-04-24T15:05:12;31.50;30.50
23311;DHT22;11828;51.508;18.118;2023-04-24T15:07:38;31.40;30.50
23311;DHT22;11828;51.508;18.118;2023-04-24T15:10:05;31.50;30.40
23311;DHT22;11828;51.508;18.118;2023-04-24T15:12:31;31.60;30.00
23311;DHT22;11828;51.508;18.118;2023-04-24T15:14:58;31.70;30.00
23311;DHT22;11828;51.508;18.118;2023-04-24T15:17:25;31.70;29.90
23311;DHT22;11828;51.508;18.118;2023-04-24T15:19:52;31.80;30.00
23311;DHT22;11828;51.508;18.118;2023-04-24T15:22:18;31.80;30.00
23311;DHT22;11828;51.508;18.118;2023-04-24T15:24:44;31.90;30.10
23311;DHT22;11828;51.508;18.118;2023-04-24T15:27:11;31.90;30.00
23311;DHT22;11828;51.508;18.118;2023-04-24T15:29:37;31.90;30.00
23311;DHT22;11828;51.508;18.118;2023-04-24T15:32:03;31.80;30.00
23311;DHT22;11828;51.508;18.118;2023-04-24T15:34:30;31.90;30.10